createdAt,value
2019-05-13T00:00:46.236Z,6.99
2019-05-13T00:03:16.014Z,6.99
2019-05-13T00:05:45.742Z,6.93
2019-05-13T00:08:15.200Z,6.94
2019-05-13T00:10:45.412Z,6.90
2019-05-13T00:13:15.361Z,6.82
2019-05-13T00:15:50.801Z,6.75
2019-05-13T00:18:25.304Z,6.73
2019-05-13T00:20:55.080Z,6.70
2019-05-13T00:23:24.743Z,6.68
2019-05-13T00:25:55.057Z,6.68
2019-05-13T00:28:24.755Z,6.64
2019-05-13T00:30:54.455Z,6.64
2019-05-13T00:33:24.876Z,6.61
2019-05-13T00:35:54.651Z,6.58
2019-05-13T00:38:24.731Z,6.54
2019-05-13T00:40:57.919Z,6.50
2019-05-13T00:43:27.577Z,6.50
2019-05-13T00:45:57.535Z,6.48
2019-05-13T00:48:29.697Z,6.45
2019-05-13T00:51:03.865Z,6.43
2019-05-13T00:53:35.323Z,6.43
2019-05-13T00:56:07.343Z,6.38
2019-05-13T00:58:37.274Z,6.33
2019-05-13T01:01:10.789Z,6.32
2019-05-13T01:03:40.568Z,6.27
2019-05-13T01:06:10.218Z,6.25
2019-05-13T01:08:40.040Z,6.28
2019-05-13T01:11:09.583Z,6.29
2019-05-13T01:13:40.553Z,6.27
2019-05-13T01:16:10.243Z,6.28
2019-05-13T01:18:39.862Z,6.26
2019-05-13T01:21:09.853Z,6.22
2019-05-13T01:23:39.932Z,6.19
2019-05-13T01:26:10.186Z,6.15
2019-05-13T01:28:43.629Z,6.13
2019-05-13T01:31:13.301Z,6.09
2019-05-13T01:33:44.479Z,6.05
2019-05-13T01:36:14.153Z,6.02
2019-05-13T01:38:43.885Z,5.93
2019-05-13T01:41:13.746Z,5.99
2019-05-13T01:43:44.242Z,5.92
2019-05-13T01:46:14.959Z,5.92
2019-05-13T01:48:45.539Z,5.87
2019-05-13T01:51:15.270Z,5.83
2019-05-13T01:53:44.847Z,5.80
2019-05-13T01:56:14.620Z,5.76
2019-05-13T01:58:44.959Z,5.69
2019-05-13T02:01:15.125Z,5.66
2019-05-13T02:03:45.805Z,5.66
2019-05-13T02:06:15.524Z,5.60
2019-05-13T02:08:45.553Z,5.54
2019-05-13T02:11:15.224Z,5.50
2019-05-13T02:13:50.694Z,5.46
2019-05-13T02:16:20.072Z,5.44
2019-05-13T02:18:49.615Z,5.43
2019-05-13T02:21:19.190Z,5.41
2019-05-13T02:23:48.643Z,5.34
2019-05-13T02:26:18.175Z,5.33
2019-05-13T02:28:47.873Z,5.31
2019-05-13T02:31:25.838Z,5.30
2019-05-13T02:33:48.706Z,5.26
2019-05-13T02:36:22.537Z,5.26
2019-05-13T02:38:52.952Z,5.22
2019-05-13T02:41:23.112Z,5.26
2019-05-13T02:43:53.552Z,5.31
2019-05-13T02:46:23.221Z,5.20
2019-05-13T02:48:53.383Z,5.19
2019-05-13T02:51:23.293Z,5.16
2019-05-13T02:53:53.067Z,5.15
2019-05-13T02:56:22.915Z,5.13
2019-05-13T02:58:52.814Z,5.08
2019-05-13T03:01:22.583Z,5.05
2019-05-13T03:03:52.991Z,5.05
2019-05-13T03:06:24.663Z,4.98
2019-05-13T03:08:54.751Z,4.93
2019-05-13T03:11:24.374Z,4.90
2019-05-13T03:13:53.949Z,4.89
2019-05-13T03:16:45.527Z,4.85
2019-05-13T03:19:15.301Z,4.89
2019-05-13T03:21:47.282Z,4.84
2019-05-13T03:24:16.919Z,4.78
2019-05-13T03:26:46.396Z,4.76
2019-05-13T03:29:16.205Z,4.73
2019-05-13T03:31:47.078Z,4.68
2019-05-13T03:34:25.532Z,4.68
2019-05-13T03:36:56.897Z,4.69
2019-05-13T03:39:23.593Z,4.69
2019-05-13T03:41:56.279Z,4.72
2019-05-13T03:44:28.095Z,4.78
2019-05-13T03:47:03.393Z,4.90
2019-05-13T03:49:36.392Z,5.07
2019-05-13T03:52:06.287Z,5.20
2019-05-13T03:54:36.817Z,5.39
2019-05-13T03:57:08.277Z,5.43
2019-05-13T03:59:37.825Z,5.74
2019-05-13T04:02:07.608Z,5.87
2019-05-13T04:04:37.140Z,6.21
2019-05-13T04:07:06.767Z,6.12
2019-05-13T04:09:38.609Z,6.36
2019-05-13T04:12:13.410Z,6.48
2019-05-13T04:14:43.056Z,6.47
2019-05-13T04:17:12.861Z,6.73
2019-05-13T04:19:42.749Z,6.54
2019-05-13T04:22:13.071Z,6.59
2019-05-13T04:24:43.150Z,6.58
2019-05-13T04:27:13.515Z,7.09
2019-05-13T04:29:45.485Z,7.20
2019-05-13T04:32:18.823Z,7.27
2019-05-13T04:34:49.054Z,7.24
2019-05-13T04:37:22.250Z,7.27
2019-05-13T04:39:55.798Z,7.16
2019-05-13T04:42:23.952Z,7.28
2019-05-13T04:44:53.523Z,7.23
2019-05-13T04:47:23.160Z,7.89
2019-05-13T04:49:53.811Z,8.28
2019-05-13T04:52:23.861Z,8.77
2019-05-13T04:54:53.483Z,8.66
2019-05-13T04:57:26.236Z,8.40
2019-05-13T04:59:57.225Z,7.98
2019-05-13T05:02:54.800Z,8.05
2019-05-13T05:05:53.056Z,8.50
2019-05-13T05:09:12.847Z,8.46
2019-05-13T05:12:19.804Z,8.96
2019-05-13T05:15:19.894Z,8.39
2019-05-13T05:18:28.833Z,9.00
2019-05-13T05:21:06.004Z,9.34
2019-05-13T05:24:14.961Z,9.15
2019-05-13T05:27:27.247Z,9.73
2019-05-13T05:30:41.181Z,9.94
2019-05-13T05:33:37.667Z,10.50
2019-05-13T05:36:53.649Z,9.61
2019-05-13T05:39:25.615Z,9.62
2019-05-13T05:41:57.192Z,9.34
2019-05-13T05:44:29.190Z,9.38
2019-05-13T05:47:03.668Z,10.16
2019-05-13T05:49:34.343Z,9.13
2019-05-13T05:52:07.563Z,9.48
2019-05-13T05:54:39.132Z,9.31
2019-05-13T05:57:11.905Z,9.16
2019-05-13T05:59:42.554Z,9.42
2019-05-13T06:02:13.019Z,9.57
2019-05-13T06:04:43.384Z,9.36
2019-05-13T06:07:15.678Z,9.96
2019-05-13T06:09:45.368Z,10.13
2019-05-13T06:12:15.242Z,10.53
2019-05-13T06:14:46.477Z,10.90
2019-05-13T06:17:17.817Z,11.20
2019-05-13T06:19:47.695Z,10.53
2019-05-13T06:22:17.501Z,10.64
2019-05-13T06:24:47.376Z,10.33
2019-05-13T06:27:17.876Z,11.45
2019-05-13T06:29:49.330Z,11.63
2019-05-13T06:32:25.357Z,11.39
2019-05-13T06:34:52.609Z,11.01
2019-05-13T06:37:23.446Z,10.97
2019-05-13T06:39:53.018Z,11.17
2019-05-13T06:42:22.617Z,11.49
2019-05-13T06:44:52.672Z,11.73
2019-05-13T06:47:24.624Z,11.82
2019-05-13T06:49:54.665Z,12.58
2019-05-13T06:52:24.826Z,11.77
2019-05-13T06:54:56.429Z,12.09
2019-05-13T06:57:28.111Z,11.90
2019-05-13T07:00:01.414Z,12.74
2019-05-13T07:02:32.090Z,12.22
2019-05-13T07:05:02.525Z,11.80
2019-05-13T07:07:32.242Z,11.73
2019-05-13T07:10:06.916Z,12.66
2019-05-13T07:12:41.184Z,13.67
2019-05-13T07:15:11.746Z,13.96
2019-05-13T07:17:41.752Z,14.28
2019-05-13T07:20:13.165Z,14.25
2019-05-13T07:22:42.934Z,13.58
2019-05-13T07:25:13.029Z,13.80
2019-05-13T07:27:44.105Z,14.19
2019-05-13T07:30:14.740Z,13.71
2019-05-13T07:32:44.707Z,14.45
2019-05-13T07:35:14.966Z,13.86
2019-05-13T07:37:44.864Z,14.03
2019-05-13T07:40:16.945Z,14.17
2019-05-13T07:42:47.934Z,14.84
2019-05-13T07:45:17.961Z,15.28
2019-05-13T07:47:47.660Z,14.27
2019-05-13T07:50:17.195Z,14.36
2019-05-13T07:52:47.588Z,14.84
2019-05-13T07:55:17.410Z,14.47
2019-05-13T07:57:48.179Z,15.06
2019-05-13T08:00:21.808Z,15.09
2019-05-13T08:02:52.311Z,14.83
2019-05-13T08:05:23.124Z,15.78
2019-05-13T08:07:53.248Z,15.29
2019-05-13T08:10:23.335Z,14.77
2019-05-13T08:12:52.897Z,13.31
2019-05-13T08:15:23.144Z,14.03
2019-05-13T08:17:53.627Z,14.46
2019-05-13T08:20:23.594Z,14.92
2019-05-13T08:22:53.583Z,14.50
2019-05-13T08:25:23.129Z,14.47
2019-05-13T08:27:52.660Z,14.64
2019-05-13T08:30:22.908Z,14.37
2019-05-13T08:32:54.710Z,15.16
2019-05-13T08:35:25.357Z,14.06
2019-05-13T08:37:54.777Z,15.20
2019-05-13T08:40:24.313Z,16.30
2019-05-13T08:42:54.077Z,16.33
2019-05-13T08:45:24.493Z,15.77
2019-05-13T08:47:54.930Z,14.65
2019-05-13T08:50:25.943Z,16.14
2019-05-13T08:52:55.614Z,15.24
2019-05-13T08:55:25.771Z,16.90
2019-05-13T09:00:52.899Z,15.96
2019-05-13T09:03:23.323Z,15.20
2019-05-13T09:05:54.126Z,14.76
2019-05-13T09:08:26.525Z,16.14
2019-05-13T09:10:57.271Z,16.20
2019-05-13T09:13:27.566Z,16.21
2019-05-13T09:15:57.038Z,15.95
2019-05-13T09:18:27.149Z,16.44
2019-05-13T09:20:57.145Z,16.89
2019-05-13T09:23:26.934Z,17.70
2019-05-13T09:25:56.318Z,18.64
2019-05-13T09:28:25.693Z,17.48
2019-05-13T09:30:55.235Z,17.07
2019-05-13T09:33:24.665Z,16.39
2019-05-13T09:35:54.237Z,17.59
2019-05-13T09:38:24.116Z,16.74
2019-05-13T09:41:01.696Z,16.97
2019-05-13T09:43:31.529Z,15.86
2019-05-13T09:46:02.010Z,16.85
2019-05-13T09:48:32.248Z,17.10
2019-05-13T09:51:02.596Z,16.26
2019-05-13T09:53:32.799Z,15.38
2019-05-13T09:56:05.795Z,15.23
2019-05-13T09:58:36.174Z,15.31
2019-05-13T10:01:05.885Z,16.29
2019-05-13T10:03:51.967Z,17.22
2019-05-13T10:06:06.741Z,16.81
2019-05-13T10:08:36.577Z,16.58
2019-05-13T10:11:06.306Z,17.37
2019-05-13T10:13:36.495Z,19.27
2019-05-13T10:16:07.245Z,17.94
2019-05-13T10:18:37.129Z,15.57
2019-05-13T10:21:07.642Z,16.39
2019-05-13T10:23:37.708Z,16.76
2019-05-13T10:26:12.530Z,16.60
2019-05-13T10:28:42.991Z,16.48
2019-05-13T10:31:13.895Z,17.26
2019-05-13T10:33:43.337Z,18.45
2019-05-13T10:36:12.987Z,17.68
2019-05-13T10:38:42.346Z,16.83
2019-05-13T10:41:12.335Z,16.52
2019-05-13T10:43:44.209Z,16.38
2019-05-13T10:46:13.559Z,16.17
2019-05-13T10:48:44.855Z,16.06
2019-05-13T10:51:14.482Z,16.11
2019-05-13T10:53:44.430Z,15.25
2019-05-13T10:56:14.004Z,15.77
2019-05-13T10:58:44.372Z,15.60
2019-05-13T11:01:15.185Z,16.02
2019-05-13T11:03:44.781Z,16.20
2019-05-13T11:06:14.985Z,16.57
2019-05-13T11:08:44.405Z,16.09
2019-05-13T11:11:14.641Z,17.01
2019-05-13T11:13:55.177Z,17.46
2019-05-13T11:16:16.577Z,16.07
2019-05-13T11:18:46.150Z,15.46
2019-05-13T11:21:15.507Z,16.05
2019-05-13T11:23:45.706Z,16.44
2019-05-13T11:26:15.368Z,16.74
2019-05-13T11:28:44.814Z,15.73
2019-05-13T11:31:14.331Z,16.74
2019-05-13T11:33:44.073Z,17.15
2019-05-13T11:36:19.561Z,16.14
2019-05-13T11:38:49.769Z,16.34
2019-05-13T11:41:22.936Z,17.01
2019-05-13T11:44:11.015Z,17.25
2019-05-13T11:46:24.316Z,17.64
2019-05-13T11:48:54.459Z,18.24
2019-05-13T11:51:25.703Z,16.18
2019-05-13T11:53:55.635Z,15.95
2019-05-13T11:56:25.943Z,16.48
2019-05-13T11:58:55.905Z,15.92
2019-05-13T12:01:25.415Z,15.70
2019-05-13T12:03:55.132Z,14.92
2019-05-13T12:06:26.219Z,15.31
2019-05-13T12:08:55.900Z,15.26
2019-05-13T12:11:27.531Z,15.73
2019-05-13T12:13:56.905Z,16.19
2019-05-13T12:16:27.485Z,17.23
2019-05-13T12:18:57.866Z,17.52
2019-05-13T12:21:27.631Z,17.41
2019-05-13T12:23:57.917Z,16.50
2019-05-13T12:26:27.852Z,17.12
2019-05-13T12:28:57.442Z,18.48
2019-05-13T12:31:27.149Z,18.95
2019-05-13T12:33:56.999Z,17.67
2019-05-13T12:36:26.469Z,17.11
2019-05-13T12:38:56.007Z,18.38
2019-05-13T12:41:25.632Z,18.36
2019-05-13T12:43:55.652Z,16.91
2019-05-13T12:46:25.199Z,16.45
2019-05-13T12:48:54.831Z,16.02
2019-05-13T12:51:26.051Z,16.40
2019-05-13T12:53:55.447Z,17.29
2019-05-13T12:56:25.172Z,16.59
2019-05-13T12:58:54.605Z,16.79
2019-05-13T13:01:24.806Z,17.08
2019-05-13T13:03:54.585Z,18.11
2019-05-13T13:06:32.408Z,18.61
2019-05-13T13:09:16.448Z,17.73
2019-05-13T13:12:34.642Z,18.02
2019-05-13T13:14:58.486Z,18.18
2019-05-13T13:17:28.806Z,18.42
2019-05-13T13:20:08.218Z,18.22
2019-05-13T13:22:32.148Z,18.37
2019-05-13T13:25:05.033Z,18.19
2019-05-13T13:27:59.863Z,17.39
2019-05-13T13:30:09.255Z,16.77
2019-05-13T13:32:38.920Z,17.04
2019-05-13T13:35:08.907Z,16.84
2019-05-13T13:37:38.448Z,17.10
2019-05-13T13:40:08.392Z,17.83
2019-05-13T13:42:38.126Z,18.17
2019-05-13T13:45:08.987Z,17.87
2019-05-13T13:50:16.844Z,18.50
2019-05-13T13:52:52.558Z,18.58
2019-05-13T13:55:25.569Z,18.23
2019-05-13T13:57:56.702Z,17.47
2019-05-13T14:00:38.175Z,17.27
2019-05-13T14:02:56.157Z,16.46
2019-05-13T14:05:25.457Z,16.45
2019-05-13T14:07:12.890Z,17.11
2019-05-13T14:07:55.164Z,16.13
2019-05-13T14:10:25.268Z,15.96
2019-05-13T14:12:55.230Z,16.69
2019-05-13T14:15:25.706Z,16.84
2019-05-13T14:17:56.516Z,16.31
2019-05-13T14:20:26.585Z,16.01
2019-05-13T14:22:58.036Z,15.66
2019-05-13T14:25:28.042Z,15.59
2019-05-13T14:27:58.530Z,16.22
2019-05-13T14:30:30.828Z,15.88
2019-05-13T14:33:02.143Z,15.84
2019-05-13T14:35:31.222Z,15.50
2019-05-13T14:38:02.454Z,15.48
2019-05-13T14:40:32.070Z,15.51
2019-05-13T14:43:03.868Z,15.77
2019-05-13T14:45:33.257Z,15.56
2019-05-13T14:48:02.995Z,15.86
2019-05-13T14:50:32.693Z,15.67
2019-05-13T14:53:05.500Z,15.28
2019-05-13T14:55:35.082Z,15.98
2019-05-13T14:58:06.650Z,15.86
2019-05-13T15:00:36.167Z,15.77
2019-05-13T15:03:13.056Z,16.12
2019-05-13T15:05:43.111Z,15.90
2019-05-13T15:08:14.982Z,15.91
2019-05-13T15:10:45.459Z,16.44
2019-05-13T15:13:15.239Z,15.80
2019-05-13T15:15:44.556Z,16.08
2019-05-13T15:18:14.169Z,15.57
2019-05-13T15:20:43.922Z,15.47
2019-05-13T15:23:13.611Z,15.58
2019-05-13T15:25:43.903Z,16.00
2019-05-13T15:28:13.339Z,15.94
2019-05-13T15:30:42.701Z,15.88
2019-05-13T15:33:12.577Z,15.97
2019-05-13T15:35:42.791Z,16.17
2019-05-13T15:38:12.864Z,16.18
2019-05-13T15:40:42.775Z,16.05
2019-05-13T15:43:13.526Z,15.96
2019-05-13T15:45:44.605Z,16.28
2019-05-13T15:48:14.533Z,15.77
2019-05-13T15:50:44.848Z,15.64
2019-05-13T15:53:14.696Z,15.91
2019-05-13T15:55:44.414Z,15.99
2019-05-13T15:58:13.891Z,16.29
2019-05-13T16:00:43.906Z,16.45
2019-05-13T16:03:14.759Z,16.19
2019-05-13T16:05:45.068Z,16.46
2019-05-13T16:08:14.495Z,16.30
2019-05-13T16:10:46.449Z,16.65
2019-05-13T16:13:16.730Z,17.24
2019-05-13T16:15:46.182Z,16.32
2019-05-13T16:18:15.613Z,16.70
2019-05-13T16:20:45.801Z,15.98
2019-05-13T16:23:15.230Z,16.45
2019-05-13T16:25:44.918Z,16.71
2019-05-13T16:28:14.471Z,16.09
2019-05-13T16:30:47.461Z,15.79
2019-05-13T16:33:17.224Z,16.36
2019-05-13T16:35:51.588Z,16.80
2019-05-13T16:38:23.160Z,16.41
2019-05-13T16:40:53.323Z,16.39
2019-05-13T16:43:25.584Z,16.19
2019-05-13T16:45:56.723Z,16.86
2019-05-13T16:48:26.735Z,17.01
2019-05-13T16:50:58.383Z,16.95
2019-05-13T16:53:31.263Z,17.12
2019-05-13T16:56:02.129Z,17.19
2019-05-13T16:58:32.759Z,17.12
2019-05-13T17:01:06.957Z,17.52
2019-05-13T17:03:36.471Z,17.06
2019-05-13T17:06:06.557Z,17.18
2019-05-13T17:08:37.737Z,17.41
2019-05-13T17:11:11.550Z,17.30
2019-05-13T17:13:43.754Z,17.32
2019-05-13T17:16:14.087Z,17.13
2019-05-13T17:18:44.397Z,17.58
2019-05-13T17:21:14.383Z,17.97
2019-05-13T17:23:45.071Z,18.17
2019-05-13T17:26:15.383Z,17.37
2019-05-13T17:28:44.838Z,17.05
2019-05-13T17:31:15.087Z,16.90
2019-05-13T17:33:45.830Z,17.06
2019-05-13T17:36:17.318Z,16.95
2019-05-13T17:38:47.150Z,16.42
2019-05-13T17:41:17.631Z,16.06
2019-05-13T17:43:48.840Z,15.70
2019-05-13T17:46:18.853Z,15.99
2019-05-13T17:48:52.028Z,15.79
2019-05-13T17:51:22.514Z,15.49
2019-05-13T17:53:52.615Z,16.00
2019-05-13T17:56:22.608Z,15.93
2019-05-13T17:58:52.360Z,16.00
2019-05-13T18:01:22.090Z,15.82
2019-05-13T18:03:52.096Z,15.42
2019-05-13T18:06:22.334Z,15.52
2019-05-13T18:08:52.591Z,15.40
2019-05-13T18:11:23.027Z,15.41
2019-05-13T18:13:53.345Z,15.21
2019-05-13T18:16:22.749Z,14.96
2019-05-13T18:18:52.574Z,14.67
2019-05-13T18:21:23.341Z,14.26
2019-05-13T18:23:53.449Z,14.21
2019-05-13T18:26:23.535Z,13.99
2019-05-13T18:28:54.644Z,14.05
2019-05-13T18:31:25.001Z,14.07
2019-05-13T18:33:54.654Z,14.02
2019-05-13T18:36:27.955Z,14.01
2019-05-13T18:38:58.029Z,13.91
2019-05-13T18:41:28.369Z,13.73
2019-05-13T18:43:58.485Z,13.59
2019-05-13T18:46:29.165Z,13.43
2019-05-13T18:49:02.165Z,13.29
2019-05-13T18:51:31.750Z,13.05
2019-05-13T18:54:01.384Z,12.92
2019-05-13T18:56:32.946Z,12.81
2019-05-13T18:59:04.193Z,12.80
2019-05-13T19:01:33.936Z,12.79
2019-05-13T19:04:03.725Z,12.68
2019-05-13T19:06:33.687Z,12.52
2019-05-13T19:09:06.557Z,12.46
2019-05-13T19:11:38.108Z,12.39
2019-05-13T19:14:08.198Z,12.41
2019-05-13T19:16:42.162Z,12.33
2019-05-13T19:19:16.297Z,12.27
2019-05-13T19:21:44.578Z,12.19
2019-05-13T19:24:20.202Z,12.06
2019-05-13T19:26:55.610Z,11.94
2019-05-13T19:29:26.400Z,11.82
2019-05-13T19:31:57.034Z,11.74
2019-05-13T19:34:27.974Z,11.69
2019-05-13T19:36:57.806Z,11.62
2019-05-13T19:39:37.553Z,11.55
2019-05-13T19:42:11.607Z,11.43
2019-05-13T19:44:47.374Z,11.31
2019-05-13T19:47:28.262Z,11.23
2019-05-13T19:50:09.619Z,11.13
2019-05-13T19:52:46.041Z,11.04
2019-05-13T19:55:28.234Z,10.94
2019-05-13T19:58:07.493Z,10.84
2019-05-13T20:00:45.599Z,10.67
2019-05-13T20:03:33.698Z,10.50
2019-05-13T20:06:14.735Z,10.31
2019-05-13T20:08:53.681Z,10.22
2019-05-13T20:11:31.388Z,10.12
2019-05-13T20:14:05.811Z,10.05
2019-05-13T20:16:42.116Z,9.96
2019-05-13T20:19:15.893Z,9.87
2019-05-13T20:21:52.997Z,9.76
2019-05-13T20:24:31.309Z,9.65
2019-05-13T20:27:11.999Z,9.50
2019-05-13T20:29:53.772Z,9.40
2019-05-13T20:32:29.841Z,9.28
2019-05-13T20:35:11.476Z,9.34
2019-05-13T20:37:46.017Z,9.30
2019-05-13T20:40:22.056Z,9.25
2019-05-13T20:42:54.173Z,9.14
2019-05-13T20:45:36.514Z,9.05
2019-05-13T20:48:11.978Z,9.04
2019-05-13T20:50:54.825Z,9.05
2019-05-13T20:53:36.826Z,9.09
2019-05-13T20:56:15.015Z,9.13
2019-05-13T20:59:02.398Z,9.14
2019-05-13T21:01:41.958Z,9.11
2019-05-13T21:04:32.240Z,9.13
2019-05-13T21:07:06.418Z,9.07
2019-05-13T21:09:42.494Z,9.05
2019-05-13T21:12:22.075Z,9.05
2019-05-13T21:15:18.685Z,9.07
2019-05-13T21:17:51.621Z,9.01
2019-05-13T21:20:25.871Z,8.96
2019-05-13T21:22:54.938Z,8.91
2019-05-13T21:25:27.151Z,8.89
2019-05-13T21:27:59.465Z,8.89
2019-05-13T21:30:31.772Z,8.90
2019-05-13T21:33:03.240Z,8.91
2019-05-13T21:35:34.285Z,8.87
2019-05-13T21:38:04.257Z,8.93
2019-05-13T21:40:37.231Z,8.92
2019-05-13T21:43:08.986Z,8.91
2019-05-13T21:45:41.528Z,8.95
2019-05-13T21:48:11.626Z,8.90
2019-05-13T21:50:42.407Z,8.92
2019-05-13T21:53:12.530Z,8.96
2019-05-13T21:55:45.792Z,9.02
2019-05-13T21:58:16.658Z,8.99
2019-05-13T22:00:54.187Z,8.99
2019-05-13T22:03:25.917Z,9.01
2019-05-13T22:05:56.255Z,9.00
2019-05-13T22:08:26.812Z,8.99
2019-05-13T22:10:58.820Z,9.00
2019-05-13T22:13:32.136Z,9.07
2019-05-13T22:16:04.066Z,9.06
2019-05-13T22:18:36.258Z,9.05
2019-05-13T22:21:07.349Z,9.08
2019-05-13T22:23:41.194Z,9.12
2019-05-13T22:26:16.343Z,9.08
2019-05-13T22:28:48.459Z,9.17
2019-05-13T22:31:19.323Z,9.14
2019-05-13T22:33:51.696Z,9.16
2019-05-13T22:36:21.963Z,9.22
2019-05-13T22:38:52.255Z,9.20
2019-05-13T22:41:22.329Z,9.26
2019-05-13T22:43:58.233Z,9.26
2019-05-13T22:46:23.649Z,9.36
2019-05-13T22:48:55.558Z,9.35
2019-05-13T22:51:25.202Z,9.38
2019-05-13T22:53:55.755Z,9.41
2019-05-13T22:56:26.251Z,9.40
2019-05-13T22:58:55.993Z,9.45
2019-05-13T23:01:26.177Z,9.49
2019-05-13T23:07:24.977Z,9.56
2019-05-13T23:09:54.549Z,9.53
2019-05-13T23:12:25.055Z,9.62
2019-05-13T23:14:54.644Z,9.58
2019-05-13T23:17:24.071Z,9.61
2019-05-13T23:19:53.746Z,9.65
2019-05-13T23:22:23.839Z,9.74
2019-05-13T23:24:53.528Z,9.63
2019-05-13T23:27:23.312Z,9.46
2019-05-13T23:29:53.253Z,9.45
2019-05-13T23:32:23.215Z,9.44
2019-05-13T23:34:53.106Z,9.46
2019-05-13T23:37:23.208Z,9.50
2019-05-13T23:39:52.729Z,9.47
2019-05-13T23:42:22.095Z,9.45
2019-05-13T23:44:52.160Z,9.33
2019-05-13T23:47:21.929Z,9.25
2019-05-13T23:49:51.544Z,9.32
2019-05-13T23:52:21.959Z,9.19
2019-05-13T23:54:51.841Z,9.15
2019-05-13T23:57:22.331Z,9.11
2019-05-13T23:59:51.895Z,9.14
